Time;durP1;ratioP1;P1;durP2;ratioP2;P2;SDS_P1;SDS_P2;PMS_P1;PMS_P2;Temp;Humidity;BMP_temperature;BMP_pressure;BME280_temperature;BME280_humidity;BME280_pressure;Samples;Min_cycle;Max_cycle;Signal;HPM_P1;HPM_P2
2022/06/12 00:00:23;;;;;;;3.28;1.30;;;22.50;59.10;;;;;;4429244;32;20390;-69
2022/06/12 00:02:49;;;;;;;2.22;0.80;;;22.50;59.10;;;;;;4429208;32;20243;-68
2022/06/12 00:05:18;;;;;;;2.72;1.00;;;22.50;59.10;;;;;;4429614;32;20089;-69
2022/06/12 00:07:45;;;;;;;3.75;1.27;;;22.50;59.10;;;;;;4429387;32;20102;-69
2022/06/12 00:10:12;;;;;;;3.17;1.35;;;22.50;59.10;;;;;;4429495;32;20093;-69
2022/06/12 00:12:41;;;;;;;2.78;1.13;;;22.50;59.10;;;;;;4432432;32;20217;-69
2022/06/12 00:15:08;;;;;;;2.55;1.05;;;22.50;59.10;;;;;;4432600;32;20106;-69
2022/06/12 00:17:34;;;;;;;3.08;1.00;;;22.50;59.10;;;;;;4432624;32;20082;-69
2022/06/12 00:20:00;;;;;;;3.35;1.10;;;22.50;59.20;;;;;;4432505;32;20063;-72
2022/06/12 00:22:25;;;;;;;3.03;1.25;;;22.50;59.20;;;;;;4432628;32;20467;-69
2022/06/12 00:24:51;;;;;;;2.65;1.08;;;22.50;59.20;;;;;;4432241;32;20074;-69
2022/06/12 00:27:18;;;;;;;3.05;1.00;;;22.50;59.10;;;;;;4406128;32;20165;-69
2022/06/12 00:29:47;;;;;;;3.08;0.98;;;22.50;59.20;;;;;;4432055;32;20086;-69
2022/06/12 00:32:15;;;;;;;2.60;0.93;;;22.40;59.10;;;;;;4432410;32;20082;-69
2022/06/12 00:34:48;;;;;;;2.63;0.95;;;22.40;59.10;;;;;;4432077;32;20070;-69
2022/06/12 00:37:17;;;;;;;2.42;0.90;;;22.50;59.20;;;;;;4432636;32;20070;-69
2022/06/12 00:39:46;;;;;;;3.90;1.30;;;22.50;59.20;;;;;;4432237;32;20541;-69
2022/06/12 00:42:37;;;;;;;2.25;1.00;;;22.50;59.20;;;;;;4431807;32;20078;-69
2022/06/12 00:45:25;;;;;;;3.88;1.33;;;22.40;59.10;;;;;;4432487;32;20070;-69
2022/06/12 00:47:55;;;;;;;3.55;0.98;;;22.40;59.10;;;;;;4432123;32;20522;-69
2022/06/12 00:50:21;;;;;;;2.03;0.90;;;22.40;59.10;;;;;;4432054;32;20407;-69
2022/06/12 00:52:49;;;;;;;2.70;0.90;;;22.40;59.10;;;;;;4418000;32;20583;-69
2022/06/12 00:55:27;;;;;;;2.65;1.00;;;22.40;59.10;;;;;;4431981;32;20526;-68
2022/06/12 00:57:57;;;;;;;1.98;0.88;;;22.40;59.20;;;;;;4432284;32;20074;-68
2022/06/12 01:00:23;;;;;;;1.98;0.77;;;22.40;59.10;;;;;;4431919;32;20095;-69
2022/06/12 01:03:00;;;;;;;2.47;1.10;;;22.40;59.10;;;;;;4431931;32;20548;-70
2022/06/12 01:08:13;;;;;;;2.97;0.85;;;22.40;59.20;;;;;;4431847;32;20093;-69
2022/06/12 01:10:42;;;;;;;2.28;1.10;;;22.30;59.20;;;;;;4431704;32;20070;-69
2022/06/12 01:13:13;;;;;;;2.80;1.10;;;22.30;59.10;;;;;;4431720;32;20133;-69
2022/06/12 01:15:48;;;;;;;3.23;1.00;;;22.40;59.20;;;;;;4431596;32;20094;-68
2022/06/12 01:18:17;;;;;;;2.97;1.00;;;22.40;59.30;;;;;;4431680;32;20172;-69
2022/06/12 01:21:03;;;;;;;2.55;0.98;;;22.40;59.30;;;;;;4431615;32;20092;-68
2022/06/12 01:23:57;;;;;;;1.80;0.88;;;22.40;59.30;;;;;;4430794;32;20165;-69
2022/06/12 01:26:46;;;;;;;2.47;1.10;;;22.40;59.20;;;;;;4403325;32;20083;-69
2022/06/12 01:29:43;;;;;;;1.98;0.80;;;22.30;59.20;;;;;;4431626;32;20094;-68
2022/06/12 01:32:33;;;;;;;2.40;0.90;;;22.30;59.20;;;;;;4431437;32;20085;-69
2022/06/12 01:35:27;;;;;;;3.50;1.05;;;22.30;59.20;;;;;;4431703;32;20070;-71
2022/06/12 01:38:03;;;;;;;2.05;0.90;;;22.30;59.20;;;;;;4425177;32;20484;-68
2022/06/12 01:40:39;;;;;;;2.35;0.98;;;22.30;59.20;;;;;;4431707;32;20094;-69
2022/06/12 01:43:27;;;;;;;2.20;0.80;;;22.30;59.20;;;;;;4431115;32;20071;-69
2022/06/12 01:46:18;;;;;;;1.98;0.80;;;22.30;59.30;;;;;;4431342;32;20157;-69
2022/06/12 01:49:37;;;;;;;2.30;0.98;;;22.30;59.30;;;;;;4431583;32;20079;-67
2022/06/12 01:52:34;;;;;;;2.25;0.85;;;22.30;59.30;;;;;;4368906;32;20119;-69
2022/06/12 01:55:28;;;;;;;1.67;0.70;;;22.30;59.30;;;;;;4368807;32;20071;-69
2022/06/12 01:58:12;;;;;;;;;;;22.30;59.30;;;;;;4383780;32;20071;-68
2022/06/12 02:00:41;;;;;;;1.97;0.97;;;22.20;59.30;;;;;;4430855;32;20006;-68
2022/06/12 02:03:33;;;;;;;2.25;0.80;;;22.20;59.40;;;;;;4430645;32;20082;-68
2022/06/12 02:06:10;;;;;;;1.75;0.85;;;22.20;59.40;;;;;;4431079;32;20093;-69
2022/06/12 02:08:42;;;;;;;1.45;0.80;;;22.20;59.40;;;;;;4431108;32;20067;-68
2022/06/12 02:14:03;;;;;;;1.90;0.80;;;22.20;59.40;;;;;;4430888;32;20485;-69
2022/06/12 02:16:37;;;;;;;1.77;0.68;;;22.20;59.40;;;;;;4431092;32;20089;-69
2022/06/12 02:19:15;;;;;;;1.70;0.73;;;22.20;59.40;;;;;;4431179;32;20067;-69
2022/06/12 02:21:52;;;;;;;2.35;0.95;;;22.20;59.40;;;;;;4430850;32;20432;-68
2022/06/12 02:24:26;;;;;;;1.55;0.73;;;22.20;59.40;;;;;;4430639;32;20071;-69
2022/06/12 02:27:15;;;;;;;2.72;0.98;;;22.20;59.50;;;;;;4430999;32;20100;-69
2022/06/12 02:29:47;;;;;;;1.90;0.80;;;22.20;59.40;;;;;;4430661;32;20078;-69
2022/06/12 02:32:31;;;;;;;1.60;0.70;;;22.10;59.40;;;;;;4430621;32;20484;-69
2022/06/12 02:35:06;;;;;;;1.42;0.73;;;22.10;59.50;;;;;;4416105;32;20228;-68
2022/06/12 02:37:55;;;;;;;2.40;0.73;;;22.20;59.50;;;;;;4430629;32;20093;-69
2022/06/12 02:40:27;;;;;;;2.42;0.85;;;22.20;59.40;;;;;;4430791;32;20082;-69
2022/06/12 02:42:55;;;;;;;0.93;0.40;;;22.20;59.50;;;;;;4430741;32;20074;-68
2022/06/12 02:45:33;;;;;;;2.83;0.80;;;22.10;59.40;;;;;;4430122;32;20078;-70
2022/06/12 02:48:00;;;;;;;2.40;0.80;;;22.10;59.50;;;;;;4430436;32;20098;-69
2022/06/12 02:50:39;;;;;;;1.05;0.70;;;22.10;59.50;;;;;;4416614;32;20066;-68
2022/06/12 02:53:23;;;;;;;1.67;0.65;;;22.10;59.50;;;;;;4430596;32;20156;-69
2022/06/12 02:56:21;;;;;;;1.77;0.77;;;22.10;59.50;;;;;;4430279;32;20412;-68
2022/06/12 02:59:07;;;;;;;1.52;0.77;;;22.10;59.50;;;;;;4401095;32;20538;-68
2022/06/12 03:01:42;;;;;;;1.48;0.73;;;22.10;59.50;;;;;;4430229;32;20082;-68
2022/06/12 03:04:21;;;;;;;1.30;0.68;;;22.10;60.50;;;;;;4430117;32;20456;-69
2022/06/12 03:06:47;;;;;;;2.00;0.70;;;22.10;59.60;;;;;;4430424;32;20114;-68
2022/06/12 03:09:13;;;;;;;1.95;0.90;;;22.10;59.50;;;;;;4429784;32;20081;-68
2022/06/12 03:11:42;;;;;;;2.17;0.80;;;22.00;59.50;;;;;;4430104;32;20215;-68
2022/06/12 03:14:12;;;;;;;1.17;0.60;;;22.10;59.60;;;;;;4429731;32;20114;-68
2022/06/12 03:16:41;;;;;;;1.10;0.60;;;22.10;59.60;;;;;;4430320;32;20067;-68
2022/06/12 03:19:30;;;;;;;2.17;0.77;;;22.10;59.60;;;;;;4429944;32;20479;-69
2022/06/12 03:21:59;;;;;;;1.50;0.60;;;22.10;59.50;;;;;;4430256;32;20097;-68
2022/06/12 03:24:37;;;;;;;1.02;0.57;;;22.00;59.60;;;;;;4429699;32;20101;-69
2022/06/12 03:27:15;;;;;;;1.40;0.80;;;22.10;59.60;;;;;;4430242;32;20200;-69
2022/06/12 03:30:15;;;;;;;1.50;0.82;;;22.00;59.50;;;;;;4430202;32;20070;-68
2022/06/12 03:33:07;;;;;;;1.70;0.80;;;22.00;59.50;;;;;;4430065;32;20082;-68
2022/06/12 03:35:52;;;;;;;1.58;0.57;;;22.00;59.50;;;;;;4429912;32;20125;-68
2022/06/12 03:38:32;;;;;;;1.35;0.70;;;22.00;59.50;;;;;;4429638;32;20118;-68
2022/06/12 03:41:19;;;;;;;2.70;0.93;;;22.00;59.50;;;;;;4429855;32;20350;-68
2022/06/12 03:44:12;;;;;;;1.90;0.80;;;22.00;59.40;;;;;;4429645;32;20141;-68
2022/06/12 03:46:47;;;;;;;1.55;0.60;;;22.00;59.60;;;;;;4429312;32;20117;-69
2022/06/12 03:49:22;;;;;;;1.40;0.80;;;22.00;59.60;;;;;;4429896;32;20160;-68
2022/06/12 03:52:12;;;;;;;1.75;0.75;;;22.00;59.60;;;;;;4429802;32;20173;-68
2022/06/12 03:54:47;;;;;;;1.85;0.70;;;22.00;59.60;;;;;;4429565;32;20118;-69
2022/06/12 04:00:20;;;;;;;2.65;0.80;;;22.00;59.70;;;;;;4429743;32;20208;-69
2022/06/12 04:02:57;;;;;;;1.90;0.80;;;21.90;59.60;;;;;;4429524;32;20207;-69
2022/06/12 04:05:28;;;;;;;2.63;0.80;;;22.00;59.70;;;;;;4429255;32;20156;-68
2022/06/12 04:07:58;;;;;;;2.67;0.70;;;22.00;59.70;;;;;;4429967;32;20078;-69
2022/06/12 04:10:27;;;;;;;1.15;0.60;;;21.90;59.60;;;;;;4429739;32;20082;-68
2022/06/12 04:12:54;;;;;;;1.20;0.68;;;21.90;59.70;;;;;;4429586;32;20431;-68
2022/06/12 04:15:23;;;;;;;1.92;0.82;;;22.00;59.70;;;;;;4415482;32;20132;-68
2022/06/12 04:17:49;;;;;;;2.30;0.88;;;21.90;59.70;;;;;;4429293;32;20090;-68
2022/06/12 04:20:25;;;;;;;1.40;0.52;;;21.90;59.70;;;;;;4429542;32;20538;-69
2022/06/12 04:22:59;;;;;;;1.17;0.57;;;21.90;59.70;;;;;;4429292;32;20082;-68
2022/06/12 04:25:35;;;;;;;1.48;0.50;;;21.90;59.70;;;;;;4429361;32;20066;-68
2022/06/12 04:28:03;;;;;;;2.45;0.63;;;21.90;59.70;;;;;;4429451;32;20063;-69
2022/06/12 04:30:36;;;;;;;1.08;0.70;;;21.90;59.70;;;;;;4429850;32;20094;-68
2022/06/12 04:33:41;;;;;;;1.83;0.73;;;21.90;59.80;;;;;;4429365;32;20105;-69
2022/06/12 04:36:08;;;;;;;1.40;0.77;;;21.90;59.70;;;;;;4429553;32;20070;-69
2022/06/12 04:38:35;;;;;;;1.83;0.85;;;21.90;59.80;;;;;;4429067;32;20094;-68
2022/06/12 04:41:01;;;;;;;1.17;0.57;;;21.90;59.70;;;;;;4429373;32;20074;-68
2022/06/12 04:43:28;;;;;;;1.48;0.60;;;21.90;59.70;;;;;;4429121;32;20113;-68
2022/06/12 04:45:55;;;;;;;1.13;0.63;;;21.90;59.70;;;;;;4429305;32;20086;-68
2022/06/12 04:48:36;;;;;;;0.82;0.52;;;21.90;59.80;;;;;;4429403;32;20509;-69
2022/06/12 04:51:05;;;;;;;1.58;0.68;;;21.90;59.70;;;;;;4429634;32;20229;-68
2022/06/12 04:53:32;;;;;;;1.48;0.70;;;21.90;59.80;;;;;;4429240;32;20228;-68
2022/06/12 04:55:57;;;;;;;2.65;0.77;;;21.80;59.70;;;;;;4429686;32;20106;-68
2022/06/12 04:58:23;;;;;;;1.33;0.60;;;21.90;59.80;;;;;;4418188;32;20136;-67
2022/06/12 05:00:49;;;;;;;1.02;0.50;;;21.80;59.80;;;;;;4433833;32;20082;-69
2022/06/12 05:03:15;;;;;;;1.25;0.47;;;21.90;59.90;;;;;;4432933;32;20071;-67
2022/06/12 05:05:42;;;;;;;1.35;0.50;;;21.80;59.80;;;;;;4433526;32;20075;-69
2022/06/12 05:08:08;;;;;;;1.08;0.57;;;21.80;59.90;;;;;;4433266;32;20106;-68
2022/06/12 05:10:35;;;;;;;1.75;0.80;;;21.80;59.90;;;;;;4432186;32;20075;-69
2022/06/12 05:13:01;;;;;;;1.15;0.63;;;21.80;59.90;;;;;;4431870;32;20078;-68
2022/06/12 05:15:27;;;;;;;2.72;0.60;;;21.80;59.90;;;;;;4418135;32;20070;-69
2022/06/12 05:17:53;;;;;;;2.70;0.88;;;21.90;60.00;;;;;;4431909;32;20176;-68
2022/06/12 05:20:23;;;;;;;1.67;0.50;;;21.90;60.10;;;;;;4431596;32;20066;-69
2022/06/12 05:22:50;;;;;;;1.70;0.70;;;21.80;60.00;;;;;;4431722;32;20500;-69
2022/06/12 05:25:17;;;;;;;1.45;0.60;;;21.90;60.10;;;;;;4431517;32;20261;-68
2022/06/12 05:27:45;;;;;;;1.40;0.52;;;21.80;60.00;;;;;;4431327;32;20078;-69
2022/06/12 05:30:14;;;;;;;1.95;0.80;;;21.80;60.10;;;;;;4431254;32;20078;-69
2022/06/12 05:32:41;;;;;;;0.98;0.60;;;21.90;60.10;;;;;;4431451;32;20543;-69
2022/06/12 05:35:09;;;;;;;1.75;0.57;;;21.90;60.10;;;;;;4431201;32;20118;-69
2022/06/12 05:37:36;;;;;;;2.10;0.70;;;21.90;60.20;;;;;;4431489;32;20097;-68
2022/06/12 05:40:04;;;;;;;1.13;0.70;;;21.90;60.20;;;;;;4431379;32;20165;-69
2022/06/12 05:42:30;;;;;;;2.45;0.75;;;21.90;60.20;;;;;;4431261;32;20078;-68
2022/06/12 05:44:56;;;;;;;1.05;0.47;;;21.90;60.10;;;;;;4431380;32;20536;-69
2022/06/12 05:47:22;;;;;;;1.55;0.70;;;21.90;60.20;;;;;;4431086;32;20177;-68
2022/06/12 05:49:48;;;;;;;0.95;0.40;;;21.90;60.20;;;;;;4431477;32;20121;-69
2022/06/12 05:52:14;;;;;;;1.67;0.68;;;22.00;60.30;;;;;;4431251;32;20074;-68
2022/06/12 05:54:40;;;;;;;1.40;0.60;;;21.90;60.30;;;;;;4431219;32;20516;-68
2022/06/12 05:57:06;;;;;;;1.90;0.60;;;22.00;60.40;;;;;;4431218;32;20089;-68
2022/06/12 05:59:32;;;;;;;1.10;0.40;;;21.90;60.40;;;;;;4431203;32;20078;-68
2022/06/12 06:01:58;;;;;;;2.20;0.50;;;22.00;60.50;;;;;;4431015;32;20106;-68
2022/06/12 06:04:24;;;;;;;2.20;0.60;;;22.00;60.50;;;;;;4431061;32;20083;-68
2022/06/12 06:06:53;;;;;;;0.88;0.38;;;22.00;60.50;;;;;;4431045;32;20078;-68
2022/06/12 06:09:20;;;;;;;2.30;0.80;;;22.00;60.50;;;;;;4430831;32;20114;-69
2022/06/12 06:11:46;;;;;;;1.65;0.70;;;22.00;60.50;;;;;;4430728;32;20530;-68
2022/06/12 06:14:12;;;;;;;0.70;0.30;;;22.00;60.50;;;;;;4430905;32;20075;-68
2022/06/12 06:16:39;;;;;;;1.08;0.50;;;22.00;60.40;;;;;;4430972;32;20122;-68
2022/06/12 06:19:06;;;;;;;1.60;0.70;;;22.00;60.40;;;;;;4430917;32;20535;-68
2022/06/12 06:21:32;;;;;;;1.45;0.60;;;22.00;60.40;;;;;;4431019;32;20066;-69
2022/06/12 06:23:57;;;;;;;2.95;0.57;;;22.00;60.40;;;;;;4430914;32;20479;-68
2022/06/12 06:26:23;;;;;;;2.75;0.68;;;22.00;60.40;;;;;;4430571;32;20071;-69
2022/06/12 06:28:51;;;;;;;2.10;0.77;;;22.00;60.40;;;;;;4430487;32;20125;-68
2022/06/12 06:31:18;;;;;;;1.10;0.60;;;22.00;60.40;;;;;;4430411;32;20089;-69
2022/06/12 06:33:44;;;;;;;1.73;0.70;;;22.10;60.40;;;;;;4430357;32;20080;-69
2022/06/12 06:36:15;;;;;;;1.45;0.60;;;22.10;60.50;;;;;;4430768;32;20102;-69
2022/06/12 06:38:41;;;;;;;1.00;0.52;;;22.10;60.40;;;;;;4430673;32;20080;-68
2022/06/12 06:41:07;;;;;;;1.05;0.57;;;22.10;60.40;;;;;;4430649;32;20087;-69
2022/06/12 06:46:13;;;;;;;0.90;0.40;;;22.10;60.40;;;;;;4430481;32;20084;-68
2022/06/12 06:46:19;;;;;;;1.67;0.70;;;22.10;60.40;;;;;;4430295;32;20109;-68
2022/06/12 06:48:46;;;;;;;1.15;0.40;;;22.10;60.40;;;;;;4430402;32;20136;-68
2022/06/12 06:51:11;;;;;;;1.20;0.60;;;22.10;60.40;;;;;;4430200;32;20416;-69
2022/06/12 06:53:41;;;;;;;0.98;0.50;;;22.20;60.30;;;;;;4430227;32;20093;-68
2022/06/12 06:56:07;;;;;;;1.98;0.57;;;22.20;60.30;;;;;;4430406;32;20082;-69
2022/06/12 06:58:35;;;;;;;1.05;0.35;;;22.20;60.30;;;;;;4430308;32;20101;-69
2022/06/12 07:01:02;;;;;;;1.23;0.40;;;22.20;60.30;;;;;;4430022;32;20090;-69
2022/06/12 07:03:28;;;;;;;1.38;0.60;;;22.20;60.30;;;;;;4430101;32;20150;-68
2022/06/12 07:05:55;;;;;;;0.90;0.40;;;22.20;60.30;;;;;;4430212;32;20475;-66
2022/06/12 07:08:23;;;;;;;2.05;0.60;;;22.20;60.30;;;;;;4430167;32;20085;-70
2022/06/12 07:10:50;;;;;;;3.55;0.90;;;22.20;60.30;;;;;;4429870;32;20268;-70
2022/06/12 07:13:16;;;;;;;5.30;1.50;;;22.30;60.50;;;;;;4430174;32;20508;-70
2022/06/12 07:15:42;;;;;;;6.32;1.75;;;22.40;60.80;;;;;;4430092;32;20085;-70
2022/06/12 07:18:09;;;;;;;9.88;2.17;;;22.50;60.60;;;;;;4429711;32;20443;-70
2022/06/12 07:20:38;;;;;;;11.68;2.50;;;22.50;60.60;;;;;;4430028;32;20074;-71
2022/06/12 07:23:06;;;;;;;12.75;2.63;;;22.60;60.50;;;;;;4429884;32;20114;-71
2022/06/12 07:25:39;;;;;;;10.88;2.33;;;22.70;60.40;;;;;;4429502;32;20082;-70
2022/06/12 07:28:05;;;;;;;10.63;2.40;;;22.70;60.20;;;;;;4429963;32;20090;-71
2022/06/12 07:30:31;;;;;;;13.15;2.65;;;22.70;60.00;;;;;;4429986;32;20074;-71
2022/06/12 07:32:57;;;;;;;13.57;2.78;;;22.70;60.00;;;;;;4429753;32;20511;-71
2022/06/12 07:35:23;;;;;;;10.73;2.40;;;22.70;59.70;;;;;;4429760;32;20070;-71
2022/06/12 07:37:49;;;;;;;10.15;2.55;;;22.70;59.70;;;;;;4403486;32;20089;-70
2022/06/12 07:40:22;;;;;;;14.18;2.30;;;22.70;59.60;;;;;;4415687;32;20075;-71
2022/06/12 07:42:48;;;;;;;12.30;3.05;;;22.80;60.30;;;;;;4429795;32;20121;-71
2022/06/12 07:45:15;;;;;;;13.95;2.60;;;22.80;59.40;;;;;;4429501;32;20067;-71
2022/06/12 07:47:41;;;;;;;11.55;2.60;;;22.70;59.20;;;;;;4429836;32;20078;-71
2022/06/12 07:50:08;;;;;;;12.85;2.85;;;22.70;59.10;;;;;;4429999;32;20472;-71
2022/06/12 07:52:36;;;;;;;15.23;3.17;;;22.80;59.10;;;;;;4415913;32;20160;-70
2022/06/12 07:55:02;;;;;;;11.63;2.65;;;22.80;59.10;;;;;;4429460;32;20090;-71
2022/06/12 07:57:28;;;;;;;10.63;2.55;;;22.90;59.00;;;;;;4429710;32;20129;-71
2022/06/12 07:59:54;;;;;;;14.77;2.92;;;22.90;58.90;;;;;;4429730;32;20407;-70
2022/06/12 08:02:20;;;;;;;10.38;2.60;;;22.90;58.50;;;;;;4429519;32;20162;-71
2022/06/12 08:04:46;;;;;;;10.00;2.17;;;22.90;58.20;;;;;;4429516;32;20106;-70
2022/06/12 08:07:12;;;;;;;10.38;2.55;;;22.90;58.00;;;;;;4429533;32;20078;-71
2022/06/12 08:09:38;;;;;;;8.27;2.20;;;23.00;57.70;;;;;;4429550;32;20077;-70
2022/06/12 08:12:04;;;;;;;10.55;2.50;;;23.00;57.70;;;;;;4429770;32;20093;-71
2022/06/12 08:14:30;;;;;;;12.27;2.50;;;23.00;57.40;;;;;;4415660;32;20093;-70
2022/06/12 08:16:56;;;;;;;11.18;2.70;;;23.10;57.30;;;;;;4429587;32;20500;-70
2022/06/12 08:22:08;;;;;;;8.13;2.20;;;23.20;56.70;;;;;;4429518;32;20133;-71
2022/06/12 08:24:35;;;;;;;7.95;2.08;;;23.30;56.40;;;;;;4428886;32;20114;-70
2022/06/12 08:27:01;;;;;;;12.32;2.20;;;23.30;56.40;;;;;;4429764;32;20071;-71
2022/06/12 08:29:27;;;;;;;8.82;2.17;;;23.30;56.30;;;;;;4429340;32;20089;-71
2022/06/12 08:32:01;;;;;;;9.52;2.30;;;23.30;56.10;;;;;;4429942;32;20101;-71
2022/06/12 08:34:32;;;;;;;9.40;1.95;;;23.30;55.80;;;;;;4432546;32;20102;-71
2022/06/12 08:37:01;;;;;;;7.47;1.70;;;23.30;55.60;;;;;;4432427;32;20114;-71
2022/06/12 08:39:29;;;;;;;9.63;2.40;;;23.30;55.60;;;;;;4432290;32;20086;-71
2022/06/12 08:42:08;;;;;;;10.32;1.98;;;23.30;55.60;;;;;;4432288;32;20089;-71
2022/06/12 08:44:49;;;;;;;8.65;1.90;;;23.30;55.20;;;;;;4431956;32;20412;-71
2022/06/12 08:47:31;;;;;;;8.57;2.47;;;23.30;55.20;;;;;;4432123;32;20160;-72
2022/06/12 08:50:26;;;;;;;7.93;1.90;;;23.30;55.10;;;;;;4432235;32;20508;-71
2022/06/12 08:53:10;;;;;;;6.45;1.88;;;23.30;55.10;;;;;;4431840;32;20069;-71
2022/06/12 08:56:11;;;;;;;10.63;2.40;;;23.30;55.30;;;;;;4432176;32;20086;-71
2022/06/12 08:59:07;;;;;;;6.10;2.03;;;23.30;55.50;;;;;;4432375;32;20070;-71
2022/06/12 09:01:41;;;;;;;8.68;1.85;;;23.20;55.80;;;;;;4431971;32;20129;-71
2022/06/12 09:04:11;;;;;;;7.95;2.15;;;23.20;55.80;;;;;;4431671;32;20094;-71
2022/06/12 09:06:46;;;;;;;8.85;2.33;;;23.20;55.90;;;;;;4432101;32;20088;-71
2022/06/12 09:09:25;;;;;;;8.35;2.10;;;23.20;55.90;;;;;;4432100;32;20101;-71
2022/06/12 09:12:26;;;;;;;8.35;2.20;;;23.20;55.80;;;;;;4431780;32;20097;-71
2022/06/12 09:15:04;;;;;;;9.27;2.05;;;23.20;55.90;;;;;;4431702;32;20126;-70
2022/06/12 09:17:51;;;;;;;9.32;2.03;;;23.20;55.90;;;;;;4431808;32;20110;-71
2022/06/12 09:20:42;;;;;;;7.18;2.15;;;23.20;55.80;;;;;;4431922;32;20086;-71
2022/06/12 09:23:27;;;;;;;10.77;2.03;;;23.20;55.90;;;;;;4431365;32;20073;-72
2022/06/12 09:26:33;;;;;;;10.15;2.17;;;23.20;55.90;;;;;;4431443;32;20100;-71
2022/06/12 09:29:16;;;;;;;7.10;1.95;;;23.20;56.10;;;;;;4431491;32;20213;-71
2022/06/12 09:32:03;;;;;;;10.40;2.55;;;23.20;56.10;;;;;;4431659;32;20181;-74
2022/06/12 09:34:38;;;;;;;6.38;1.90;;;23.20;56.20;;;;;;4431757;32;20110;-72
2022/06/12 09:40:15;;;;;;;8.57;2.33;;;23.20;56.20;;;;;;4431590;32;20164;-71
2022/06/12 09:42:55;;;;;;;10.85;2.35;;;23.30;56.10;;;;;;4431053;32;20086;-72
2022/06/12 09:46:01;;;;;;;6.68;1.90;;;23.30;55.70;;;;;;4430917;32;20100;-71
2022/06/12 09:48:41;;;;;;;7.32;2.00;;;23.30;55.60;;;;;;4429126;32;20215;-71
2022/06/12 09:51:16;;;;;;;7.85;2.05;;;23.40;55.60;;;;;;4417666;32;20520;-71
2022/06/12 09:53:57;;;;;;;5.28;1.75;;;23.40;55.50;;;;;;4430903;32;20071;-72
2022/06/12 09:56:43;;;;;;;6.63;2.10;;;23.40;55.50;;;;;;4417456;32;20071;-71
2022/06/12 09:59:15;;;;;;;5.90;1.90;;;23.40;55.80;;;;;;4431473;32;20110;-72
2022/06/12 10:01:45;;;;;;;10.82;1.95;;;23.40;55.50;;;;;;4431066;32;20067;-72
2022/06/12 10:04:25;;;;;;;8.32;2.40;;;23.40;55.40;;;;;;4429548;32;20228;-72
2022/06/12 10:07:02;;;;;;;10.13;2.40;;;23.40;55.40;;;;;;4431129;32;20083;-73
2022/06/12 10:09:39;;;;;;;6.97;1.77;;;23.50;55.30;;;;;;4430804;32;20405;-72
2022/06/12 10:12:10;;;;;;;9.40;1.95;;;23.40;55.20;;;;;;4431186;32;20078;-72
2022/06/12 10:14:43;;;;;;;8.90;2.00;;;23.40;55.30;;;;;;4431015;32;20193;-72
2022/06/12 10:17:20;;;;;;;7.80;2.20;;;23.40;55.40;;;;;;4431143;32;20562;-72
2022/06/12 10:19:51;;;;;;;6.20;2.00;;;23.40;55.50;;;;;;4431054;32;20097;-74
2022/06/12 10:22:37;;;;;;;8.48;2.20;;;23.40;55.80;;;;;;4416896;32;20090;-72
2022/06/12 10:25:06;;;;;;;6.72;2.20;;;23.30;56.00;;;;;;4430786;32;20228;-72
2022/06/12 10:27:45;;;;;;;7.00;2.17;;;23.30;56.00;;;;;;4430576;32;20097;-71
2022/06/12 10:30:30;;;;;;;6.25;1.88;;;23.30;55.90;;;;;;4430723;32;20087;-77
2022/06/12 10:32:58;;;;;;;5.50;2.30;;;23.30;55.90;;;;;;4430472;32;20422;-72
2022/06/12 10:35:26;;;;;;;6.63;2.05;;;23.40;56.00;;;;;;4431042;32;20489;-73
2022/06/12 10:38:02;;;;;;;8.35;2.35;;;23.40;55.90;;;;;;4430368;32;20183;-72
2022/06/12 10:40:29;;;;;;;8.50;2.10;;;23.30;55.90;;;;;;4429508;32;20126;-72
2022/06/12 10:43:02;;;;;;;5.95;2.13;;;23.30;56.00;;;;;;4430121;32;20067;-72
2022/06/12 10:45:30;;;;;;;8.52;2.38;;;23.30;56.20;;;;;;4430685;32;20280;-72
2022/06/12 10:48:00;;;;;;;7.28;2.50;;;23.30;56.20;;;;;;4430325;32;20070;-72
2022/06/12 10:50:31;;;;;;;7.78;2.03;;;23.30;56.10;;;;;;4430465;32;20519;-73
2022/06/12 10:52:59;;;;;;;7.03;1.73;;;23.30;56.10;;;;;;4430698;32;20113;-72
2022/06/12 10:55:42;;;;;;;7.65;2.35;;;23.30;56.20;;;;;;4429681;32;20078;-72
2022/06/12 10:58:08;;;;;;;8.15;2.60;;;23.30;56.10;;;;;;4430485;32;20085;-72
2022/06/12 11:00:40;;;;;;;8.73;2.25;;;23.30;56.20;;;;;;4416434;32;20071;-72
2022/06/12 11:03:21;;;;;;;5.85;2.10;;;23.30;56.30;;;;;;4414867;32;20058;-72
2022/06/12 11:05:50;;;;;;;7.03;1.98;;;23.30;56.30;;;;;;4429895;32;20492;-72
2022/06/12 11:08:25;;;;;;;5.80;1.80;;;23.30;56.40;;;;;;4430101;32;20196;-72
2022/06/12 11:11:09;;;;;;;7.13;1.80;;;23.30;56.50;;;;;;4429776;32;20609;-73
2022/06/12 11:13:46;;;;;;;8.68;2.63;;;23.30;56.50;;;;;;4429773;32;20082;-72
2022/06/12 11:16:38;;;;;;;6.57;2.25;;;23.30;56.40;;;;;;4430218;32;20074;-73
2022/06/12 11:19:21;;;;;;;7.93;2.08;;;23.30;56.40;;;;;;4416360;32;20160;-72
2022/06/12 11:21:49;;;;;;;6.57;2.30;;;23.30;56.40;;;;;;4430005;32;20238;-72
2022/06/12 11:24:22;;;;;;;9.05;2.35;;;23.30;56.50;;;;;;4429541;32;20067;-71
2022/06/12 11:27:06;;;;;;;6.05;2.15;;;23.30;56.30;;;;;;4430027;32;20155;-72
2022/06/12 11:29:56;;;;;;;9.70;2.85;;;23.30;56.40;;;;;;4430032;32;20062;-72
2022/06/12 11:32:43;;;;;;;7.75;2.50;;;23.30;56.50;;;;;;4429583;32;20390;-72
2022/06/12 11:35:22;;;;;;;9.25;2.65;;;23.30;56.40;;;;;;4429716;32;20476;-72
2022/06/12 11:38:03;;;;;;;7.65;2.65;;;23.30;56.30;;;;;;4429584;32;20500;-72
2022/06/12 11:41:14;;;;;;;6.60;2.38;;;23.30;56.30;;;;;;4429175;32;20197;-72
2022/06/12 11:43:44;;;;;;;7.78;2.08;;;23.20;55.90;;;;;;4367114;32;20108;-72
2022/06/12 11:46:20;;;;;;;7.47;2.17;;;23.30;55.60;;;;;;4367112;32;20183;-71
2022/06/12 11:49:10;;;;;;;9.70;2.60;;;23.30;55.10;;;;;;4400456;32;20066;-77
2022/06/12 11:51:51;;;;;;;9.55;2.40;;;23.30;54.40;;;;;;4429683;32;20096;-72
2022/06/12 11:54:51;;;;;;;6.22;1.95;;;23.30;53.90;;;;;;4429658;32;20096;-71
2022/06/12 11:57:32;;;;;;;7.85;2.20;;;23.30;53.70;;;;;;4429352;32;20101;-71
2022/06/12 12:00:18;;;;;;;6.82;2.13;;;23.30;53.70;;;;;;4429299;32;20078;-71
2022/06/12 12:03:08;;;;;;;7.68;2.72;;;23.30;53.70;;;;;;4429213;32;20497;-72
2022/06/12 12:05:49;;;;;;;7.53;1.95;;;23.30;53.40;;;;;;4429405;32;20077;-72
2022/06/12 12:08:40;;;;;;;7.25;1.83;;;23.30;53.40;;;;;;4432127;32;20089;-73
2022/06/12 12:11:14;;;;;;;8.90;2.53;;;23.30;53.30;;;;;;4432656;32;20205;-73
2022/06/12 12:13:47;;;;;;;6.68;1.95;;;23.30;53.40;;;;;;4432935;32;20179;-73
2022/06/12 12:16:30;;;;;;;6.13;1.83;;;23.30;53.40;;;;;;4432588;32;20086;-76
2022/06/12 12:19:24;;;;;;;4.97;1.88;;;23.30;53.20;;;;;;4432626;32;20125;-73
2022/06/12 12:21:55;;;;;;;5.57;1.63;;;23.30;52.80;;;;;;4432614;32;20543;-71
2022/06/12 12:24:45;;;;;;;4.78;2.15;;;23.30;52.90;;;;;;4432292;32;20094;-72
2022/06/12 12:27:34;;;;;;;6.50;2.08;;;23.30;52.90;;;;;;4432213;32;20157;-72
2022/06/12 12:30:03;;;;;;;5.60;1.58;;;23.30;52.90;;;;;;4423046;32;20078;-72
2022/06/12 12:32:31;;;;;;;5.72;1.63;;;23.30;53.10;;;;;;4432359;32;20563;-71
2022/06/12 12:34:58;;;;;;;6.57;1.80;;;23.30;52.90;;;;;;4431637;32;20435;-72
2022/06/12 12:43:16;;;;;;;6.68;2.10;;;23.20;53.30;;;;;;4431959;32;20216;-71
2022/06/12 12:45:44;;;;;;;9.15;2.53;;;23.20;53.30;;;;;;4432108;32;20093;-70
2022/06/12 12:48:13;;;;;;;8.10;2.38;;;23.20;53.70;;;;;;4431737;32;20169;-72
2022/06/12 12:50:48;;;;;;;5.35;2.00;;;23.20;53.90;;;;;;4432049;32;20479;-75
2022/06/12 12:53:33;;;;;;;12.25;2.30;;;23.20;54.20;;;;;;4432251;32;20082;-72
2022/06/12 12:56:04;;;;;;;9.80;2.50;;;23.10;54.40;;;;;;4431964;32;20156;-72
2022/06/12 12:58:35;;;;;;;10.10;2.33;;;23.10;54.40;;;;;;4432298;32;20105;-72
2022/06/12 13:01:06;;;;;;;8.10;2.50;;;23.10;54.50;;;;;;4432076;32;20482;-72
2022/06/12 13:03:39;;;;;;;6.50;2.10;;;23.10;54.60;;;;;;4432110;32;20085;-72
2022/06/12 13:06:21;;;;;;;8.63;2.22;;;23.10;54.80;;;;;;4432022;32;20089;-72
2022/06/12 13:09:26;;;;;;;6.50;2.10;;;23.10;54.80;;;;;;4431917;32;20216;-72
2022/06/12 13:11:55;;;;;;;;;;;23.10;54.90;;;;;;4432519;32;20408;-72
2022/06/12 13:14:42;;;;;;;7.95;2.10;;;23.10;55.10;;;;;;4431464;32;20029;-72
2022/06/12 13:17:32;;;;;;;6.15;2.17;;;23.10;55.10;;;;;;4431934;32;20081;-73
2022/06/12 13:20:07;;;;;;;6.40;2.10;;;23.10;55.40;;;;;;4431002;32;20093;-72
2022/06/12 13:23:04;;;;;;;7.82;2.15;;;23.10;55.50;;;;;;4431666;32;20504;-72
2022/06/12 13:25:35;;;;;;;7.05;2.22;;;23.10;55.70;;;;;;4417468;32;20459;-72
2022/06/12 13:28:02;;;;;;;7.68;2.30;;;23.10;55.70;;;;;;4431360;32;20090;-72
2022/06/12 13:30:39;;;;;;;7.57;2.28;;;23.10;55.80;;;;;;4431551;32;20070;-72
2022/06/12 13:33:15;;;;;;;7.25;2.30;;;23.10;55.90;;;;;;4431843;32;20074;-72
2022/06/12 13:36:06;;;;;;;5.63;1.80;;;23.10;55.90;;;;;;4431951;32;20180;-73
2022/06/12 13:38:50;;;;;;;5.18;1.95;;;23.10;55.90;;;;;;4419514;32;20137;-72
2022/06/12 13:41:37;;;;;;;8.15;2.13;;;23.10;55.90;;;;;;4431860;32;20086;-72
2022/06/12 13:44:52;;;;;;;6.30;2.00;;;23.10;55.90;;;;;;4431483;32;20082;-72